createdAt,value
2023-02-25T00:02:02.742Z,1.90
2023-02-25T00:04:31.546Z,1.90
2023-02-25T00:06:59.544Z,1.90
2023-02-25T00:09:28.454Z,1.80
2023-02-25T00:11:57.722Z,1.80
2023-02-25T00:14:25.751Z,1.90
2023-02-25T00:16:55.983Z,1.90
2023-02-25T00:19:24.572Z,1.90
2023-02-25T00:21:52.678Z,1.90
2023-02-25T00:24:20.865Z,1.80
2023-02-25T00:26:48.829Z,1.80
2023-02-25T00:29:18.442Z,1.80
2023-02-25T00:31:47.546Z,1.80
2023-02-25T00:34:17.741Z,1.80
2023-02-25T00:36:46.060Z,1.80
2023-02-25T00:39:14.646Z,1.80
2023-02-25T00:41:42.784Z,1.90
2023-02-25T00:44:11.059Z,1.90
2023-02-25T00:46:41.023Z,1.90
2023-02-25T00:49:11.183Z,1.90
2023-02-25T00:51:40.400Z,1.90
2023-02-25T00:54:08.448Z,2.00
2023-02-25T00:56:37.182Z,2.00
2023-02-25T00:59:05.334Z,2.00
2023-02-25T01:01:34.407Z,2.10
2023-02-25T01:04:03.785Z,2.10
2023-02-25T01:06:34.136Z,2.00
2023-02-25T01:09:03.145Z,1.90
2023-02-25T01:11:33.430Z,1.90
2023-02-25T01:14:03.795Z,1.80
2023-02-25T01:16:33.334Z,1.80
2023-02-25T01:19:05.393Z,1.80
2023-02-25T01:21:37.351Z,1.70
2023-02-25T01:24:08.059Z,1.70
2023-02-25T01:26:38.654Z,1.70
2023-02-25T01:29:08.588Z,1.70
2023-02-25T01:31:38.210Z,1.70
2023-02-25T01:34:09.992Z,1.70
2023-02-25T01:36:38.245Z,1.60
2023-02-25T01:39:08.355Z,1.60
2023-02-25T01:41:38.950Z,1.60
2023-02-25T01:44:10.071Z,1.60
2023-02-25T01:46:39.204Z,1.60
2023-02-25T01:49:14.503Z,1.60
2023-02-25T01:51:44.601Z,1.50
2023-02-25T01:54:15.184Z,1.50
2023-02-25T01:56:49.350Z,1.60
2023-02-25T01:59:19.447Z,1.60
2023-02-25T02:01:47.998Z,1.60
2023-02-25T02:04:19.453Z,1.60
2023-02-25T02:06:50.048Z,1.60
2023-02-25T02:09:20.497Z,1.60
2023-02-25T02:11:48.446Z,1.60
2023-02-25T02:14:19.557Z,1.60
2023-02-25T02:17:12.087Z,1.60
2023-02-25T02:19:58.531Z,1.60
2023-02-25T02:22:33.967Z,1.60
2023-02-25T02:25:52.736Z,1.60
2023-02-25T02:28:38.011Z,1.50
2023-02-25T02:31:34.066Z,1.40
2023-02-25T02:34:16.641Z,1.50
2023-02-25T02:36:56.400Z,1.50
2023-02-25T02:39:32.068Z,1.50
2023-02-25T02:42:09.250Z,1.50
2023-02-25T02:44:46.057Z,1.50
2023-02-25T02:47:21.394Z,1.50
2023-02-25T02:49:54.816Z,1.50
2023-02-25T02:52:26.782Z,1.50
2023-02-25T02:55:01.287Z,1.40
2023-02-25T02:57:31.535Z,1.40
2023-02-25T03:00:12.586Z,1.50
2023-02-25T03:02:45.879Z,1.50
2023-02-25T03:05:18.077Z,1.50
2023-02-25T03:07:52.462Z,1.50
2023-02-25T03:10:23.169Z,1.50
2023-02-25T03:12:51.342Z,1.50
2023-02-25T03:15:21.909Z,1.50
2023-02-25T03:17:55.082Z,1.50
2023-02-25T03:20:29.425Z,1.50
2023-02-25T03:23:02.394Z,1.50
2023-02-25T03:25:36.308Z,1.50
2023-02-25T03:28:13.734Z,1.50
2023-02-25T03:30:45.773Z,1.50
2023-02-25T03:33:21.012Z,1.40
2023-02-25T03:35:51.003Z,1.40
2023-02-25T03:38:23.763Z,1.40
2023-02-25T03:40:53.356Z,1.40
2023-02-25T03:43:26.518Z,1.40
2023-02-25T03:45:55.320Z,1.40
2023-02-25T03:48:26.328Z,1.40
2023-02-25T03:50:59.436Z,1.40
2023-02-25T03:53:28.082Z,1.40
2023-02-25T03:56:06.884Z,1.40
2023-02-25T03:58:38.066Z,1.40
2023-02-25T04:01:17.146Z,1.40
2023-02-25T04:03:46.828Z,1.50
2023-02-25T04:06:16.338Z,1.50
2023-02-25T04:08:44.771Z,1.50
2023-02-25T04:11:13.663Z,1.50
2023-02-25T04:13:43.672Z,1.50
2023-02-25T04:16:11.799Z,1.50
2023-02-25T04:18:40.401Z,1.50
2023-02-25T04:21:16.493Z,1.60
2023-02-25T04:23:44.517Z,1.60
2023-02-25T04:26:12.611Z,1.60
2023-02-25T04:28:40.534Z,1.60
2023-02-25T04:31:08.617Z,1.60
2023-02-25T04:33:36.649Z,1.60
2023-02-25T04:36:05.180Z,1.50
2023-02-25T04:38:34.448Z,1.50
2023-02-25T04:41:02.468Z,1.50
2023-02-25T04:43:30.400Z,1.50
2023-02-25T04:45:58.364Z,1.50
2023-02-25T04:48:27.774Z,1.50
2023-02-25T04:50:55.957Z,1.50
2023-02-25T04:53:23.958Z,1.50
2023-02-25T04:55:53.405Z,1.60
2023-02-25T04:58:21.335Z,1.60
2023-02-25T05:00:49.427Z,1.60
2023-02-25T05:03:17.784Z,1.60
2023-02-25T05:05:48.728Z,1.60
2023-02-25T05:08:16.833Z,1.60
2023-02-25T05:10:44.804Z,1.60
2023-02-25T05:13:14.101Z,1.60
2023-02-25T05:15:42.240Z,1.60
2023-02-25T05:18:10.266Z,1.50
2023-02-25T05:20:41.203Z,1.60
2023-02-25T05:23:09.507Z,1.60
2023-02-25T05:25:41.246Z,1.50
2023-02-25T05:28:09.539Z,1.50
2023-02-25T05:30:40.202Z,1.50
2023-02-25T05:33:09.153Z,1.50
2023-02-25T05:35:40.903Z,1.50
2023-02-25T05:38:08.911Z,1.50
2023-02-25T05:40:37.082Z,1.50
2023-02-25T05:43:05.140Z,1.40
2023-02-25T05:45:33.181Z,1.50
2023-02-25T05:48:02.456Z,1.50
2023-02-25T05:50:31.791Z,1.50
2023-02-25T05:53:00.270Z,1.50
2023-02-25T05:55:28.309Z,1.50
2023-02-25T05:57:56.345Z,1.50
2023-02-25T06:00:24.582Z,1.50
2023-02-25T06:02:52.602Z,1.50
2023-02-25T06:05:31.323Z,1.50
2023-02-25T06:07:59.746Z,1.40
2023-02-25T06:10:29.024Z,1.40
2023-02-25T06:12:56.972Z,1.40
2023-02-25T06:15:24.978Z,1.40
2023-02-25T06:17:52.932Z,1.40
2023-02-25T06:20:21.146Z,1.40
2023-02-25T06:22:50.424Z,1.40
2023-02-25T06:25:18.765Z,1.40
2023-02-25T06:27:46.704Z,1.40
2023-02-25T06:30:15.097Z,1.40
2023-02-25T06:32:43.884Z,1.50
2023-02-25T06:35:11.885Z,1.50
2023-02-25T06:37:39.975Z,1.50
2023-02-25T06:40:14.035Z,1.50
2023-02-25T06:42:42.478Z,1.50
2023-02-25T06:45:11.284Z,1.50
2023-02-25T06:47:39.293Z,1.50
2023-02-25T06:50:08.674Z,1.50
2023-02-25T06:52:36.696Z,1.50
2023-02-25T06:55:06.761Z,1.50
2023-02-25T06:57:37.336Z,1.60
2023-02-25T07:00:08.827Z,1.60
2023-02-25T07:02:36.917Z,1.60
2023-02-25T07:05:05.585Z,1.60
2023-02-25T07:07:33.853Z,1.60
2023-02-25T07:10:01.855Z,1.60
2023-02-25T07:12:31.291Z,1.60
2023-02-25T07:15:00.898Z,1.60
2023-02-25T07:17:28.867Z,1.60
2023-02-25T07:19:57.154Z,1.60
2023-02-25T07:22:25.179Z,1.50
2023-02-25T07:24:53.194Z,1.50
2023-02-25T07:27:21.255Z,1.50
2023-02-25T07:29:49.243Z,1.50
2023-02-25T07:32:18.783Z,1.40
2023-02-25T07:34:46.894Z,1.40
2023-02-25T07:37:14.851Z,1.40
2023-02-25T07:39:42.884Z,1.50
2023-02-25T07:42:10.902Z,1.50
2023-02-25T07:44:39.036Z,1.40
2023-02-25T07:47:07.063Z,1.40
2023-02-25T07:49:36.477Z,1.40
2023-02-25T07:52:04.477Z,1.40
2023-02-25T07:54:32.525Z,1.40
2023-02-25T07:57:00.559Z,1.40
2023-02-25T07:59:28.869Z,1.40
2023-02-25T08:01:56.836Z,1.50
2023-02-25T08:04:25.284Z,1.40
2023-02-25T08:06:55.379Z,1.50
2023-02-25T08:09:28.025Z,1.50
2023-02-25T08:11:57.050Z,1.50
2023-02-25T08:14:25.066Z,1.50
2023-02-25T08:16:57.427Z,1.40
2023-02-25T08:19:25.720Z,1.50
2023-02-25T08:21:55.240Z,1.50
2023-02-25T08:24:23.966Z,1.50
2023-02-25T08:26:51.917Z,1.50
2023-02-25T08:29:19.873Z,1.60
2023-02-25T08:31:48.984Z,1.60
2023-02-25T08:34:17.105Z,1.60
2023-02-25T08:36:45.658Z,1.70
2023-02-25T08:39:15.037Z,1.60
2023-02-25T08:41:44.238Z,1.60
2023-02-25T08:44:12.556Z,1.60
2023-02-25T08:46:41.456Z,1.70
2023-02-25T08:49:11.294Z,1.70
2023-02-25T08:51:41.879Z,1.70
2023-02-25T08:54:12.911Z,1.70
2023-02-25T08:56:44.433Z,1.70
2023-02-25T08:59:14.128Z,1.70
2023-02-25T09:01:49.255Z,1.70
2023-02-25T09:04:19.844Z,1.70
2023-02-25T09:06:48.347Z,1.70
2023-02-25T09:09:16.864Z,1.70
2023-02-25T09:11:47.580Z,1.70
2023-02-25T09:14:16.296Z,1.70
2023-02-25T09:16:44.347Z,1.70
2023-02-25T09:19:13.846Z,1.80
2023-02-25T09:21:41.745Z,1.90
2023-02-25T09:24:10.588Z,2.00
2023-02-25T09:26:39.171Z,2.00
2023-02-25T09:29:09.397Z,2.00
2023-02-25T09:31:39.717Z,2.00
2023-02-25T09:34:11.012Z,2.00
2023-02-25T09:36:39.816Z,2.10
2023-02-25T09:39:10.198Z,2.10
2023-02-25T09:41:45.632Z,2.10
2023-02-25T09:44:19.374Z,2.20
2023-02-25T09:46:52.080Z,2.20
2023-02-25T09:49:27.057Z,2.30
2023-02-25T09:52:00.599Z,2.40
2023-02-25T09:54:34.329Z,2.40
2023-02-25T09:57:04.238Z,2.40
2023-02-25T09:59:33.821Z,2.40
2023-02-25T10:02:16.445Z,2.50
2023-02-25T10:04:52.981Z,2.40
2023-02-25T10:07:27.823Z,2.40
2023-02-25T10:10:02.801Z,2.40
2023-02-25T10:12:40.289Z,2.20
2023-02-25T10:15:30.467Z,2.20
2023-02-25T10:18:23.735Z,2.20
2023-02-25T10:21:04.017Z,2.20
2023-02-25T10:23:44.880Z,2.20
2023-02-25T10:26:18.932Z,2.10
2023-02-25T10:28:51.433Z,2.00
2023-02-25T10:31:23.623Z,2.00
2023-02-25T10:33:53.830Z,1.90
2023-02-25T10:36:27.866Z,2.00
2023-02-25T10:38:55.981Z,2.10
2023-02-25T10:41:26.648Z,2.20
2023-02-25T10:43:56.547Z,2.20
2023-02-25T10:46:32.286Z,2.20
2023-02-25T10:49:02.735Z,2.30
2023-02-25T10:51:30.828Z,2.30
2023-02-25T10:54:08.476Z,2.40
2023-02-25T10:56:42.666Z,2.50
2023-02-25T10:59:27.385Z,2.40
2023-02-25T11:01:59.639Z,2.40
2023-02-25T11:04:33.864Z,2.30
2023-02-25T11:07:01.893Z,2.20
2023-02-25T11:09:40.072Z,2.20
2023-02-25T11:12:18.319Z,2.20
2023-02-25T11:14:46.765Z,2.10
2023-02-25T11:17:20.208Z,2.10
2023-02-25T11:19:49.913Z,2.20
2023-02-25T11:22:20.126Z,2.30
2023-02-25T11:24:59.593Z,2.30
2023-02-25T11:27:36.073Z,2.30
2023-02-25T11:30:09.225Z,2.30
2023-02-25T11:32:42.759Z,2.20
2023-02-25T11:35:19.340Z,2.20
2023-02-25T11:37:48.552Z,2.30
2023-02-25T11:40:26.098Z,2.30
2023-02-25T11:43:02.618Z,2.30
2023-02-25T11:45:32.206Z,2.30
2023-02-25T11:48:04.243Z,2.30
2023-02-25T11:50:38.831Z,2.40
2023-02-25T11:53:17.083Z,2.40
2023-02-25T11:56:00.414Z,2.40
2023-02-25T11:58:46.055Z,2.40
2023-02-25T12:01:22.132Z,2.40
2023-02-25T12:04:05.975Z,2.50
2023-02-25T12:06:53.100Z,2.40
2023-02-25T12:09:40.750Z,2.20
2023-02-25T12:12:32.939Z,2.20
2023-02-25T12:15:26.049Z,2.20
2023-02-25T12:18:29.945Z,2.20
2023-02-25T12:21:30.712Z,2.30
2023-02-25T12:24:23.453Z,2.40
2023-02-25T12:27:37.798Z,2.40
2023-02-25T12:30:50.880Z,2.40
2023-02-25T12:33:47.074Z,2.40
2023-02-25T12:36:27.090Z,2.50
2023-02-25T12:39:20.041Z,2.70
2023-02-25T12:41:54.784Z,2.80
2023-02-25T12:45:02.650Z,2.80
2023-02-25T12:47:47.615Z,2.90
2023-02-25T12:50:40.296Z,2.90
2023-02-25T12:53:27.435Z,2.90
2023-02-25T12:56:15.438Z,2.80
2023-02-25T12:58:57.383Z,2.80
2023-02-25T13:01:57.492Z,2.70
2023-02-25T13:04:54.106Z,2.80
2023-02-25T13:07:54.966Z,2.70
2023-02-25T13:10:47.323Z,2.80
2023-02-25T13:13:33.915Z,2.70
2023-02-25T13:16:13.058Z,2.70
2023-02-25T13:18:51.835Z,2.80
2023-02-25T13:21:43.182Z,2.90
2023-02-25T13:24:37.334Z,3.00
2023-02-25T13:27:28.234Z,3.10
2023-02-25T13:30:15.867Z,3.20
2023-02-25T13:32:54.520Z,3.30
2023-02-25T13:35:33.450Z,3.30
2023-02-25T13:38:14.455Z,3.40
2023-02-25T13:40:52.200Z,3.30
2023-02-25T13:43:49.847Z,3.20
2023-02-25T13:46:39.722Z,3.10
2023-02-25T13:49:45.092Z,3.00
2023-02-25T13:52:25.716Z,2.80
2023-02-25T13:55:41.333Z,2.80
2023-02-25T13:58:26.730Z,2.70
2023-02-25T14:01:23.149Z,2.60
2023-02-25T14:04:35.366Z,2.50
2023-02-25T14:07:17.828Z,2.40
2023-02-25T14:09:51.451Z,2.20
2023-02-25T14:12:34.395Z,2.10
2023-02-25T14:15:19.523Z,2.10
2023-02-25T14:18:07.391Z,2.10
2023-02-25T14:20:47.732Z,2.10
2023-02-25T14:23:26.412Z,2.20
2023-02-25T14:26:24.724Z,2.20
2023-02-25T14:29:09.225Z,2.10
2023-02-25T14:31:53.785Z,2.10
2023-02-25T14:34:42.337Z,2.10
2023-02-25T14:37:22.165Z,2.10
2023-02-25T14:40:14.083Z,2.10
2023-02-25T14:42:57.221Z,2.00
2023-02-25T14:45:29.907Z,1.80
2023-02-25T14:48:03.126Z,1.80
2023-02-25T14:50:39.089Z,1.70
2023-02-25T14:53:36.353Z,1.60
2023-02-25T14:56:32.530Z,1.50
2023-02-25T14:59:32.989Z,1.50
2023-02-25T15:02:29.133Z,1.40
2023-02-25T15:05:29.504Z,1.40
2023-02-25T15:08:32.822Z,1.30
2023-02-25T15:11:21.172Z,1.40
2023-02-25T15:14:09.397Z,1.40
2023-02-25T15:17:10.200Z,1.30
2023-02-25T15:20:05.352Z,1.30
2023-02-25T15:22:34.639Z,1.30
2023-02-25T15:25:30.660Z,1.30
2023-02-25T15:28:01.500Z,1.40
2023-02-25T15:31:10.731Z,1.40
2023-02-25T15:33:40.702Z,1.30
2023-02-25T15:36:26.878Z,1.30
2023-02-25T15:38:56.538Z,1.20
2023-02-25T15:41:46.628Z,1.20
2023-02-25T15:44:40.713Z,1.10
2023-02-25T15:47:27.081Z,1.00
2023-02-25T15:49:58.522Z,0.90
2023-02-25T15:52:58.967Z,0.90
2023-02-25T15:55:39.348Z,0.90
2023-02-25T15:58:51.122Z,0.80
2023-02-25T16:01:42.622Z,0.80
2023-02-25T16:04:45.791Z,0.70
2023-02-25T16:07:17.418Z,0.70
2023-02-25T16:09:50.331Z,0.60
2023-02-25T16:12:19.525Z,0.60
2023-02-25T16:14:50.795Z,0.50
2023-02-25T16:17:21.840Z,0.50
2023-02-25T16:19:55.274Z,0.40
2023-02-25T16:22:25.564Z,0.30
2023-02-25T16:24:55.644Z,0.30
2023-02-25T16:27:40.282Z,0.30
2023-02-25T16:30:16.656Z,0.20
2023-02-25T16:32:53.201Z,0.20
2023-02-25T16:35:29.203Z,0.10
2023-02-25T16:38:06.667Z,0.10
2023-02-25T16:40:37.734Z,0.00
2023-02-25T16:43:07.465Z,0.00
2023-02-25T16:45:43.190Z,0.00
2023-02-25T16:48:17.532Z,0.00
2023-02-25T16:50:48.741Z,-0.10
2023-02-25T16:53:20.278Z,-0.10
2023-02-25T16:55:48.960Z,-0.10
2023-02-25T16:58:23.313Z,-0.10
2023-02-25T17:00:55.539Z,-0.10
2023-02-25T17:03:26.101Z,-0.10
2023-02-25T17:06:03.552Z,-0.10
2023-02-25T17:08:31.660Z,-0.10
2023-02-25T17:11:02.168Z,-0.10
2023-02-25T17:13:33.776Z,-0.10
2023-02-25T17:16:05.381Z,-0.30
2023-02-25T17:18:36.556Z,-0.40
2023-02-25T17:21:07.607Z,-0.50
2023-02-25T17:23:39.718Z,-0.50
2023-02-25T17:26:09.775Z,-0.50
2023-02-25T17:28:38.052Z,-0.50
2023-02-25T17:31:10.643Z,-0.40
2023-02-25T17:33:49.229Z,-0.40
2023-02-25T17:36:22.149Z,-0.30
2023-02-25T17:38:53.459Z,-0.30
2023-02-25T17:41:23.204Z,-0.30
2023-02-25T17:43:51.507Z,-0.40
2023-02-25T17:46:41.459Z,-0.40
2023-02-25T17:49:21.260Z,-0.40
2023-02-25T17:51:55.309Z,-0.40
2023-02-25T17:54:26.402Z,-0.40
2023-02-25T17:57:00.197Z,-0.40
2023-02-25T17:59:39.602Z,-0.40
2023-02-25T18:02:30.383Z,-0.40
2023-02-25T18:05:24.786Z,-0.40
2023-02-25T18:08:10.295Z,-0.40
2023-02-25T18:10:47.001Z,-0.40
2023-02-25T18:13:23.050Z,-0.40
2023-02-25T18:16:18.676Z,-0.40
2023-02-25T18:18:51.366Z,-0.40
2023-02-25T18:21:19.319Z,-0.40
2023-02-25T18:23:48.160Z,-0.40
2023-02-25T18:26:18.203Z,-0.40
2023-02-25T18:28:47.068Z,-0.40
2023-02-25T18:31:16.940Z,-0.40
2023-02-25T18:33:46.157Z,-0.50
2023-02-25T18:36:23.335Z,-0.50
2023-02-25T18:38:53.659Z,-0.40
2023-02-25T18:41:21.570Z,-0.40
2023-02-25T18:43:49.490Z,-0.40
2023-02-25T18:46:18.552Z,-0.40
2023-02-25T18:48:46.470Z,-0.40
2023-02-25T18:51:17.324Z,-0.40
2023-02-25T18:53:45.211Z,-0.30
2023-02-25T18:56:17.394Z,-0.30
2023-02-25T18:58:45.560Z,-0.50
2023-02-25T19:01:20.839Z,-0.60
2023-02-25T19:03:48.895Z,-0.60
2023-02-25T19:06:18.388Z,-0.70
2023-02-25T19:08:46.403Z,-0.70
2023-02-25T19:11:18.952Z,-0.80
2023-02-25T19:13:47.185Z,-0.80
2023-02-25T19:16:16.848Z,-0.90
2023-02-25T19:18:48.221Z,-1.00
2023-02-25T19:21:26.490Z,-1.30
2023-02-25T19:24:34.528Z,-1.40
2023-02-25T19:27:09.804Z,-1.40
2023-02-25T19:33:09.852Z,-1.60
2023-02-25T19:35:39.872Z,-1.60
2023-02-25T19:38:12.525Z,-1.50
2023-02-25T19:40:41.331Z,-1.50
2023-02-25T19:43:09.403Z,-1.50
2023-02-25T19:45:37.466Z,-1.50
2023-02-25T19:48:05.995Z,-1.50
2023-02-25T19:50:35.027Z,-1.50
2023-02-25T19:53:05.587Z,-1.50
2023-02-25T19:55:39.034Z,-1.50
2023-02-25T19:58:07.619Z,-1.50
2023-02-25T20:00:35.874Z,-1.50
2023-02-25T20:03:04.364Z,-1.40
2023-02-25T20:05:32.415Z,-1.40
2023-02-25T20:08:00.669Z,-1.50
2023-02-25T20:10:28.741Z,-1.50
2023-02-25T20:12:59.074Z,-1.40
2023-02-25T20:15:27.401Z,-1.40
2023-02-25T20:17:57.442Z,-1.40
2023-02-25T20:20:27.503Z,-1.40
2023-02-25T20:22:55.456Z,-1.40
2023-02-25T20:25:23.485Z,-1.30
2023-02-25T20:27:51.553Z,-1.30
2023-02-25T20:30:22.902Z,-1.40
2023-02-25T20:32:50.945Z,-1.40
2023-02-25T20:35:22.293Z,-1.30
2023-02-25T20:38:09.493Z,-1.40
2023-02-25T20:40:38.835Z,-1.40
2023-02-25T20:43:07.105Z,-1.30
2023-02-25T20:45:37.343Z,-1.30
2023-02-25T20:48:08.493Z,-1.20
2023-02-25T20:50:38.278Z,-1.20
2023-02-25T20:53:06.781Z,-1.30
2023-02-25T20:55:34.923Z,-1.30
2023-02-25T20:58:02.941Z,-1.30
2023-02-25T21:00:31.096Z,-1.20
2023-02-25T21:03:00.622Z,-1.20
2023-02-25T21:05:31.405Z,-1.20
2023-02-25T21:07:59.392Z,-1.20
2023-02-25T21:10:27.410Z,-1.20
2023-02-25T21:12:55.871Z,-1.30
2023-02-25T21:15:25.065Z,-1.30
2023-02-25T21:17:53.177Z,-1.30
2023-02-25T21:20:22.623Z,-1.30
2023-02-25T21:22:50.712Z,-1.30
2023-02-25T21:25:18.721Z,-1.30
2023-02-25T21:27:46.870Z,-1.30
2023-02-25T21:30:15.319Z,-1.20
2023-02-25T21:32:44.617Z,-1.30
2023-02-25T21:35:12.654Z,-1.30
2023-02-25T21:37:42.653Z,-1.30
2023-02-25T21:40:12.272Z,-1.40
2023-02-25T21:42:40.255Z,-1.30
2023-02-25T21:45:13.357Z,-1.30
2023-02-25T21:47:42.609Z,-1.30
2023-02-25T21:50:12.845Z,-1.30
2023-02-25T21:52:42.817Z,-1.30
2023-02-25T21:55:11.993Z,-1.30
2023-02-25T21:57:40.101Z,-1.30
2023-02-25T22:00:11.319Z,-1.30
2023-02-25T22:02:43.527Z,-1.30
2023-02-25T22:05:11.670Z,-1.30
2023-02-25T22:07:39.705Z,-1.30
2023-02-25T22:10:10.726Z,-1.30
2023-02-25T22:12:38.796Z,-1.30
2023-02-25T22:15:07.723Z,-1.20
2023-02-25T22:17:36.521Z,-1.20
2023-02-25T22:20:06.098Z,-1.20
2023-02-25T22:22:34.183Z,-1.20
2023-02-25T22:25:04.507Z,-1.20
2023-02-25T22:27:33.872Z,-1.20
2023-02-25T22:30:01.878Z,-1.30
2023-02-25T22:32:35.538Z,-1.30
2023-02-25T22:35:03.550Z,-1.40
2023-02-25T22:37:33.241Z,-1.50
2023-02-25T22:40:01.291Z,-1.50
2023-02-25T22:42:29.386Z,-1.60
2023-02-25T22:45:03.973Z,-1.60
2023-02-25T22:47:32.200Z,-1.60
2023-02-25T22:50:01.228Z,-1.70
2023-02-25T22:52:29.262Z,-1.70
2023-02-25T22:54:59.389Z,-1.70
2023-02-25T22:57:27.463Z,-1.70
2023-02-25T22:59:55.491Z,-1.80
2023-02-25T23:02:25.062Z,-1.70
2023-02-25T23:04:53.131Z,-1.80
2023-02-25T23:07:21.253Z,-1.80
2023-02-25T23:09:50.428Z,-1.70
2023-02-25T23:12:19.806Z,-1.70
2023-02-25T23:14:51.076Z,-1.70
2023-02-25T23:17:19.246Z,-1.60
2023-02-25T23:19:48.619Z,-1.60
2023-02-25T23:22:26.889Z,-1.60
2023-02-25T23:24:56.044Z,-1.60
2023-02-25T23:27:25.846Z,-1.50
2023-02-25T23:29:53.807Z,-1.60
2023-02-25T23:32:21.849Z,-1.60
2023-02-25T23:34:51.189Z,-1.50
2023-02-25T23:37:19.213Z,-1.60
2023-02-25T23:39:48.542Z,-1.60
2023-02-25T23:42:16.472Z,-1.60
2023-02-25T23:44:44.397Z,-1.70
2023-02-25T23:47:14.444Z,-1.70
2023-02-25T23:49:42.752Z,-1.70
2023-02-25T23:52:12.172Z,-1.70
2023-02-25T23:54:40.185Z,-1.80
2023-02-25T23:57:08.102Z,-1.70
2023-02-25T23:59:35.992Z,-1.70
